Time;durP1;ratioP1;P1;durP2;ratioP2;P2;SDS_P1;SDS_P2;PMS_P1;PMS_P2;Temp;Humidity;BMP_temperature;BMP_pressure;BME280_temperature;BME280_humidity;BME280_pressure;Samples;Min_cycle;Max_cycle;Signal;HPM_P1;HPM_P2
2021/05/24 00:00:21;;;;;;;0.10;0.10;;;;;;;8.05;86.25;101576.56;10574651;28;20019;-68
2021/05/24 00:05:27;;;;;;;0.00;0.00;;;;;;;8.02;86.78;101573.34;10566402;28;20070;-68
2021/05/24 00:10:30;;;;;;;0.00;0.00;;;;;;;8.04;86.42;101566.94;10574330;28;20020;-68
2021/05/24 00:15:37;;;;;;;0.00;0.00;;;;;;;8.09;85.73;101559.47;10574424;28;20538;-68
2021/05/24 00:20:43;;;;;;;0.10;0.10;;;;;;;8.15;85.59;101552.81;10573013;28;20051;-68
2021/05/24 00:25:44;;;;;;;0.10;0.10;;;;;;;8.23;85.71;101546.84;10574349;28;20031;-68
2021/05/24 00:30:46;;;;;;;0.00;0.00;;;;;;;8.34;84.08;101537.03;10574041;28;20106;-68
2021/05/24 00:35:46;;;;;;;0.10;0.10;;;;;;;8.45;82.77;101533.53;10574384;28;20020;-68
2021/05/24 00:40:47;;;;;;;0.10;0.10;;;;;;;8.59;82.25;101521.75;10577971;28;20219;-68
2021/05/24 00:45:47;;;;;;;0.10;0.10;;;;;;;8.68;82.18;101520.97;10563730;28;20647;-68
2021/05/24 00:50:48;;;;;;;0.10;0.10;;;;;;;8.75;81.61;101510.66;10559225;28;20024;-68
2021/05/24 00:55:48;;;;;;;0.00;0.00;;;;;;;8.88;81.37;101500.69;10547187;28;20266;-69
2021/05/24 01:00:49;;;;;;;0.08;0.08;;;;;;;8.94;80.75;101494.00;10538262;28;20020;-68
2021/05/24 01:05:50;;;;;;;0.10;0.10;;;;;;;9.00;79.82;101485.50;10577448;28;20059;-68
2021/05/24 01:10:50;;;;;;;0.10;0.10;;;;;;;8.98;79.36;101480.31;10557541;28;20501;-68
2021/05/24 01:15:51;;;;;;;0.10;0.10;;;;;;;8.98;79.31;101471.50;10546748;28;20333;-67
2021/05/24 01:20:51;;;;;;;0.05;0.05;;;;;;;8.92;79.58;101470.22;10537426;28;20069;-67
2021/05/24 01:25:52;;;;;;;0.10;0.10;;;;;;;8.90;80.00;101471.31;10537583;28;20039;-67
2021/05/24 01:30:52;;;;;;;0.03;0.03;;;;;;;8.85;79.74;101458.44;10536251;28;20024;-67
2021/05/24 01:35:53;;;;;;;0.05;0.05;;;;;;;8.89;79.84;101459.84;10554276;28;20022;-67
2021/05/24 01:40:53;;;;;;;0.10;0.10;;;;;;;8.91;79.09;101455.25;10570752;28;20160;-68
2021/05/24 01:45:54;;;;;;;0.10;0.10;;;;;;;8.96;78.27;101449.53;10542108;27;20191;-68
2021/05/24 01:50:55;;;;;;;0.10;0.10;;;;;;;9.02;76.90;101441.88;10535086;28;20115;-67
2021/05/24 01:55:56;;;;;;;0.10;0.10;;;;;;;9.07;77.19;101436.16;10536459;28;20209;-68
2021/05/24 02:01:08;;;;;;;0.10;0.10;;;;;;;9.05;77.88;101430.16;10536157;28;20413;-67
2021/05/24 02:06:08;;;;;;;0.10;0.10;;;;;;;9.00;78.35;101427.88;10536133;28;20024;-67
2021/05/24 02:11:09;;;;;;;0.00;0.00;;;;;;;9.00;77.10;101433.19;10548582;28;20015;-68
2021/05/24 02:16:10;;;;;;;0.10;0.10;;;;;;;9.05;76.83;101427.50;10572918;28;20024;-68
2021/05/24 02:21:11;;;;;;;0.10;0.10;;;;;;;9.11;75.59;101423.47;10551424;28;20364;-67
2021/05/24 02:26:12;;;;;;;0.10;0.10;;;;;;;9.11;75.15;101429.59;10535726;28;20024;-68
2021/05/24 02:31:12;;;;;;;0.10;0.10;;;;;;;9.09;75.77;101425.41;10534560;28;20016;-68
2021/05/24 02:36:13;;;;;;;0.03;0.03;;;;;;;9.06;75.92;101422.03;10540735;27;20621;-67
2021/05/24 02:41:15;;;;;;;0.00;0.00;;;;;;;9.03;76.47;101424.97;10538139;28;20701;-68
2021/05/24 02:46:15;;;;;;;0.03;0.03;;;;;;;9.01;76.63;101416.25;10546751;28;20019;-67
2021/05/24 02:51:16;;;;;;;0.10;0.10;;;;;;;8.99;76.72;101409.44;10539444;28;20020;-67
2021/05/24 02:56:17;;;;;;;0.10;0.10;;;;;;;9.01;76.00;101410.94;10542497;27;20020;-68
2021/05/24 03:01:17;;;;;;;0.10;0.10;;;;;;;9.04;75.83;101401.88;10533566;28;20386;-68
2021/05/24 03:06:17;;;;;;;0.10;0.10;;;;;;;9.09;75.61;101406.78;10533726;28;20032;-68
2021/05/24 03:11:18;;;;;;;0.10;0.10;;;;;;;9.13;74.72;101401.06;10540294;28;20024;-69
2021/05/24 03:16:19;;;;;;;0.10;0.10;;;;;;;9.19;74.19;101399.69;10536901;28;20382;-67
2021/05/24 03:21:20;;;;;;;0.03;0.03;;;;;;;9.32;74.69;101402.09;10551069;28;20022;-67
2021/05/24 03:26:20;;;;;;;0.03;0.03;;;;;;;9.30;75.20;101396.91;10571214;28;20332;-68
2021/05/24 03:31:20;;;;;;;0.00;0.00;;;;;;;9.26;75.32;101392.84;10574147;28;20355;-66
2021/05/24 03:36:20;;;;;;;0.10;0.10;;;;;;;9.24;75.98;101392.13;10574463;28;20023;-69
2021/05/24 03:41:21;;;;;;;0.10;0.10;;;;;;;9.25;75.27;101386.69;10555574;28;20537;-67
2021/05/24 03:46:21;;;;;;;0.10;0.10;;;;;;;9.30;74.71;101381.78;10535383;28;20049;-67
2021/05/24 03:51:22;;;;;;;0.10;0.10;;;;;;;9.36;74.21;101379.56;10533167;28;20032;-68
2021/05/24 03:56:22;;;;;;;0.07;0.07;;;;;;;9.40;73.79;101375.69;10533284;28;20030;-67
2021/05/24 04:01:23;;;;;;;0.03;0.03;;;;;;;9.42;74.81;101366.56;10533161;28;20036;-67
2021/05/24 04:06:26;;;;;;;0.10;0.10;;;;;;;9.43;74.17;101368.25;10532752;28;20119;-67
2021/05/24 04:11:26;;;;;;;0.10;0.10;;;;;;;9.53;73.05;101376.22;10555271;27;20427;-67
2021/05/24 04:16:27;;;;;;;0.10;0.10;;;;;;;9.61;73.54;101375.53;10545638;28;20018;-68
2021/05/24 04:21:27;;;;;;;0.10;0.10;;;;;;;9.70;73.21;101372.88;10556135;28;20011;-68
2021/05/24 04:26:27;;;;;;;0.10;0.10;;;;;;;9.80;72.70;101366.72;10556239;28;20022;-67
2021/05/24 04:31:28;;;;;;;0.10;0.10;;;;;;;9.89;72.12;101361.41;10567033;28;20027;-67
2021/05/24 04:36:28;;;;;;;0.10;0.10;;;;;;;10.01;71.03;101359.44;10553772;28;20050;-67
2021/05/24 04:41:29;;;;;;;0.10;0.10;;;;;;;10.17;70.58;101358.81;10547221;28;20014;-67
2021/05/24 04:46:29;;;;;;;0.00;0.00;;;;;;;10.34;69.60;101350.13;10545881;28;20020;-67
2021/05/24 04:51:29;;;;;;;0.10;0.10;;;;;;;10.50;69.38;101338.00;10542196;28;20024;-67
2021/05/24 04:56:30;;;;;;;0.00;0.00;;;;;;;11.00;67.80;101333.16;10547932;28;20293;-66
2021/05/24 05:01:30;;;;;;;0.10;0.10;;;;;;;11.07;67.32;101330.72;10553028;28;20251;-67
2021/05/24 05:06:30;;;;;;;0.10;0.10;;;;;;;11.30;66.78;101333.78;10561810;28;20261;-67
2021/05/24 05:11:31;;;;;;;0.10;0.10;;;;;;;11.42;66.51;101329.06;10489135;22;20037;-67
2021/05/24 05:16:31;;;;;;;0.10;0.10;;;;;;;11.44;65.95;101327.09;10427400;28;20426;-67
2021/05/24 05:21:31;;;;;;;0.10;0.10;;;;;;;11.51;66.22;101328.16;10407078;28;20447;-66
2021/05/24 05:26:32;;;;;;;0.10;0.10;;;;;;;11.55;66.67;101321.53;10410800;28;20300;-66
2021/05/24 05:31:32;;;;;;;0.20;0.20;;;;;;;11.65;66.61;101324.94;10414671;28;20040;-67
2021/05/24 05:36:33;;;;;;;0.10;0.10;;;;;;;12.10;64.85;101315.97;10428075;28;20025;-67
2021/05/24 05:41:35;;;;;;;0.10;0.10;;;;;;;12.51;64.09;101302.84;10455551;28;20553;-66
2021/05/24 05:46:36;;;;;;;0.10;0.10;;;;;;;12.83;63.66;101303.97;10444931;28;20480;-64
2021/05/24 05:51:36;;;;;;;0.10;0.10;;;;;;;13.53;62.02;101299.09;10448856;28;20017;-65
2021/05/24 05:56:37;;;;;;;0.10;0.10;;;;;;;14.59;59.29;101299.94;10418153;28;20409;-64
2021/05/24 06:01:37;;;;;;;0.10;0.10;;;;;;;14.34;60.34;101296.47;10449730;28;20252;-66
2021/05/24 06:06:37;;;;;;;0.10;0.10;;;;;;;14.00;59.47;101292.22;10454629;28;20104;-66
2021/05/24 06:11:38;;;;;;;0.10;0.10;;;;;;;13.57;62.82;101294.25;10441469;28;20048;-66
2021/05/24 06:16:38;;;;;;;0.10;0.10;;;;;;;13.69;62.01;101305.44;10419732;28;20025;-67
2021/05/24 06:21:38;;;;;;;0.10;0.10;;;;;;;13.97;62.60;101303.25;10418232;28;20025;-65
2021/05/24 06:26:39;;;;;;;0.10;0.10;;;;;;;16.51;58.27;101302.44;10442227;28;20017;-66
2021/05/24 06:31:42;;;;;;;0.10;0.10;;;;;;;17.98;49.15;101294.91;10414486;28;20018;-66
2021/05/24 06:36:43;;;;;;;0.10;0.10;;;;;;;18.72;47.09;101278.06;10423004;28;20031;-68
2021/05/24 06:41:43;;;;;;;0.10;0.10;;;;;;;19.34;48.38;101289.69;10434128;28;20513;-68
2021/05/24 06:46:43;;;;;;;0.10;0.10;;;;;;;18.50;47.62;101281.91;10451979;28;20391;-66
2021/05/24 06:51:44;;;;;;;0.10;0.10;;;;;;;18.29;49.51;101277.47;10451924;28;20440;-65
2021/05/24 06:56:44;;;;;;;0.10;0.10;;;;;;;18.12;49.56;101271.53;10434495;28;20049;-66
2021/05/24 07:01:45;;;;;;;0.10;0.10;;;;;;;17.56;49.48;101264.28;10452568;28;20024;-65
2021/05/24 07:06:45;;;;;;;0.00;0.00;;;;;;;17.48;50.05;101256.31;10452022;28;20108;-66
2021/05/24 07:11:46;;;;;;;0.10;0.10;;;;;;;17.33;53.67;101261.78;10443542;28;20374;-67
2021/05/24 07:16:46;;;;;;;0.10;0.10;;;;;;;18.33;51.72;101241.81;10428362;28;20051;-66
2021/05/24 07:21:47;;;;;;;0.10;0.10;;;;;;;18.94;47.04;101246.41;10410745;28;20049;-66
2021/05/24 07:26:49;;;;;;;0.10;0.10;;;;;;;19.34;48.40;101240.22;10392793;28;20065;-66
2021/05/24 07:31:49;;;;;;;0.10;0.10;;;;;;;19.67;47.48;101232.16;10391533;28;20029;-67
2021/05/24 07:36:50;;;;;;;0.10;0.10;;;;;;;19.69;48.07;101232.78;10448234;28;20395;-67
2021/05/24 07:41:50;;;;;;;0.10;0.10;;;;;;;20.10;47.70;101240.63;10450432;28;20032;-65
2021/05/24 07:46:50;;;;;;;0.10;0.10;;;;;;;20.57;46.57;101224.25;10434249;28;20029;-66
2021/05/24 07:51:51;;;;;;;0.10;0.10;;;;;;;20.88;44.41;101219.91;10449645;28;20373;-67
2021/05/24 07:56:52;;;;;;;0.10;0.10;;;;;;;21.14;44.16;101206.19;10449911;28;20086;-66
2021/05/24 08:01:52;;;;;;;0.10;0.10;;;;;;;20.80;43.52;101207.47;10449366;28;20475;-65
2021/05/24 08:06:52;;;;;;;0.10;0.10;;;;;;;20.40;49.05;101210.34;10427683;28;20017;-64
2021/05/24 08:11:53;;;;;;;0.10;0.10;;;;;;;19.58;47.53;101217.19;10391015;28;20063;-65
2021/05/24 08:16:54;;;;;;;0.10;0.10;;;;;;;20.06;50.05;101214.19;10410898;28;20513;-65
2021/05/24 08:21:55;;;;;;;0.10;0.10;;;;;;;20.48;47.35;101206.56;10418339;28;20376;-66
2021/05/24 08:26:55;;;;;;;0.00;0.00;;;;;;;20.26;46.95;101206.84;10391015;28;20026;-65
2021/05/24 08:31:55;;;;;;;0.10;0.10;;;;;;;20.49;47.94;101197.41;10407373;28;20383;-65
2021/05/24 08:36:56;;;;;;;0.10;0.10;;;;;;;20.70;47.13;101172.75;10422218;28;20021;-66
2021/05/24 08:41:58;;;;;;;0.10;0.10;;;;;;;20.90;48.43;101185.31;10447163;28;20104;-65
2021/05/24 08:46:59;;;;;;;0.10;0.10;;;;;;;20.74;45.20;101171.28;10430825;28;20490;-65
2021/05/24 08:52:00;;;;;;;0.00;0.00;;;;;;;20.58;47.29;101163.66;10430863;28;20032;-65
2021/05/24 08:57:00;;;;;;;0.10;0.10;;;;;;;20.41;46.08;101157.88;10422957;28;20083;-65
2021/05/24 09:02:00;;;;;;;0.10;0.10;;;;;;;20.54;47.54;101162.44;10411832;28;20022;-65
2021/05/24 09:07:01;;;;;;;0.10;0.10;;;;;;;20.52;45.76;101142.84;10415895;28;20075;-65
2021/05/24 09:12:04;;;;;;;0.10;0.10;;;;;;;20.79;49.20;101138.13;10434604;28;20283;-65
2021/05/24 09:17:04;;;;;;;0.05;0.05;;;;;;;20.77;45.99;101143.75;10443438;28;20077;-65
2021/05/24 09:22:09;;;;;;;0.10;0.10;;;;;;;20.56;45.23;101131.38;10455449;28;20246;-66
2021/05/24 09:27:35;;;;;;;0.10;0.10;;;;;;;20.59;46.65;101135.53;10448666;28;20073;-65
2021/05/24 09:32:38;;;;;;;0.10;0.10;;;;;;;20.55;46.78;101118.09;10415296;28;20025;-65
2021/05/24 09:37:42;;;;;;;0.10;0.10;;;;;;;20.79;44.69;101130.00;10423509;28;20460;-66
2021/05/24 09:42:43;;;;;;;0.10;0.10;;;;;;;20.13;43.79;101133.91;10455112;28;20403;-67
2021/05/24 09:47:44;;;;;;;0.00;0.00;;;;;;;20.45;46.18;101118.53;10414667;28;20025;-65
2021/05/24 09:52:47;;;;;;;0.10;0.10;;;;;;;20.71;45.07;101123.00;10413788;28;20025;-66
2021/05/24 09:58:06;;;;;;;0.00;0.00;;;;;;;20.98;46.50;101095.72;10414728;28;20032;-66
2021/05/24 10:03:10;;;;;;;0.00;0.00;;;;;;;21.00;43.93;101093.59;10423538;28;20009;-67
2021/05/24 10:08:10;;;;;;;;;;;;;;;20.21;46.56;101093.06;10426313;28;20048;-64
2021/05/24 10:13:11;;;;;;;0.10;0.10;;;;;;;20.64;47.96;101091.59;10452808;28;19943;-66
2021/05/24 10:18:12;;;;;;;0.10;0.10;;;;;;;20.63;44.75;101085.34;10455162;28;20135;-65
2021/05/24 10:23:12;;;;;;;0.10;0.10;;;;;;;20.77;45.01;101080.69;10454466;28;20357;-67
2021/05/24 10:28:13;;;;;;;0.00;0.00;;;;;;;20.77;46.76;101076.09;10453438;28;20552;-65
2021/05/24 10:33:14;;;;;;;0.10;0.10;;;;;;;19.99;45.47;101070.09;10453325;28;20021;-67
2021/05/24 10:38:20;;;;;;;0.10;0.10;;;;;;;19.85;48.16;101069.34;10454722;28;20052;-66
2021/05/24 10:43:20;;;;;;;0.00;0.00;;;;;;;20.51;47.72;101052.72;10447816;28;20399;-66
2021/05/24 10:48:34;;;;;;;0.10;0.10;;;;;;;21.09;43.55;101065.19;10447937;28;20137;-67
2021/05/24 10:53:42;;;;;;;0.10;0.10;;;;;;;20.61;41.84;101049.56;10447555;28;20035;-67
2021/05/24 10:58:43;;;;;;;0.10;0.10;;;;;;;20.53;43.45;101053.34;10451865;28;20467;-66
2021/05/24 11:04:09;;;;;;;0.10;0.10;;;;;;;20.62;41.77;101034.97;10453541;28;20051;-66
2021/05/24 11:09:09;;;;;;;0.10;0.10;;;;;;;20.20;43.60;101039.19;10471002;22;20043;-66
2021/05/24 11:14:10;;;;;;;0.10;0.10;;;;;;;19.73;42.83;101034.03;10519384;28;20422;-66
2021/05/24 11:19:16;;;;;;;0.10;0.10;;;;;;;19.60;41.92;101017.84;10522138;28;20024;-66
2021/05/24 11:29:37;;;;;;;0.10;0.10;;;;;;;20.26;41.87;101004.00;10492127;28;20120;-66
2021/05/24 11:34:39;;;;;;;0.10;0.10;;;;;;;20.55;38.50;101010.66;10492137;28;20024;-66
2021/05/24 11:39:47;;;;;;;0.10;0.10;;;;;;;20.78;40.30;100996.53;10474119;28;20039;-66
2021/05/24 11:44:49;;;;;;;0.10;0.10;;;;;;;20.98;40.42;100998.22;10491974;28;20030;-66
2021/05/24 11:50:01;;;;;;;0.10;0.10;;;;;;;21.01;34.23;100976.09;10492075;28;20020;-66
2021/05/24 11:55:14;;;;;;;0.10;0.10;;;;;;;21.18;40.43;100963.63;10473161;28;20056;-66
2021/05/24 12:00:17;;;;;;;0.00;0.00;;;;;;;21.44;36.90;100961.69;10489408;28;20424;-66
2021/05/24 12:05:20;;;;;;;0.10;0.10;;;;;;;21.44;36.69;100937.31;10490742;28;20017;-66
2021/05/24 12:10:23;;;;;;;0.10;0.10;;;;;;;21.44;37.80;100943.53;10489879;28;20522;-66
2021/05/24 12:15:23;;;;;;;0.10;0.10;;;;;;;21.40;38.07;100942.31;10485207;28;20027;-66
2021/05/24 12:20:23;;;;;;;0.10;0.10;;;;;;;21.33;38.69;100943.47;10489599;28;20036;-66
2021/05/24 12:25:24;;;;;;;0.10;0.10;;;;;;;21.41;37.10;100918.75;10490011;28;20119;-66
2021/05/24 12:30:39;;;;;;;0.10;0.10;;;;;;;21.54;37.21;100923.19;10483354;28;20081;-66
2021/05/24 12:35:52;;;;;;;0.10;0.10;;;;;;;21.53;36.17;100910.72;10489150;28;20021;-66
2021/05/24 12:40:55;;;;;;;0.10;0.10;;;;;;;21.04;37.94;100910.66;10488756;28;20310;-66
2021/05/24 12:45:55;;;;;;;0.10;0.10;;;;;;;20.59;37.05;100902.81;10482488;28;20024;-66
2021/05/24 12:50:57;;;;;;;0.10;0.10;;;;;;;20.66;41.36;100890.06;10489063;28;20111;-66
2021/05/24 12:56:08;;;;;;;0.10;0.10;;;;;;;20.92;37.30;100888.09;10488006;28;20081;-66
2021/05/24 13:01:08;;;;;;;0.10;0.10;;;;;;;20.97;35.27;100890.94;10488884;28;20070;-66
2021/05/24 13:06:11;;;;;;;0.10;0.10;;;;;;;20.85;36.66;100892.75;10489233;28;20044;-66
2021/05/24 13:11:12;;;;;;;0.10;0.10;;;;;;;21.12;36.96;100891.41;10485319;28;20394;-66
2021/05/24 13:16:29;;;;;;;0.10;0.10;;;;;;;21.38;37.36;100878.59;10488122;28;20082;-66
2021/05/24 13:32:46;;;;;;;0.10;0.10;;;;;;;20.75;36.60;100877.03;10488261;28;20032;-66
2021/05/24 13:37:47;;;;;;;0.10;0.10;;;;;;;20.90;36.53;100869.38;10488648;28;20476;-66
2021/05/24 13:42:48;;;;;;;0.10;0.10;;;;;;;20.88;36.91;100879.59;10488022;28;20405;-66
2021/05/24 13:47:50;;;;;;;0.10;0.10;;;;;;;20.82;37.60;100877.78;10489929;28;20171;-66
2021/05/24 13:52:50;;;;;;;0.10;0.10;;;;;;;20.52;38.42;100864.16;10491118;28;20034;-65
2021/05/24 13:57:50;;;;;;;0.10;0.10;;;;;;;20.18;40.14;100866.31;10494885;28;20038;-66
2021/05/24 14:02:51;;;;;;;0.10;0.10;;;;;;;19.96;40.57;100867.78;10494699;28;20021;-66
2021/05/24 14:07:52;;;;;;;0.10;0.10;;;;;;;19.81;38.96;100846.44;10494604;28;20020;-66
2021/05/24 14:12:52;;;;;;;0.10;0.10;;;;;;;19.70;39.42;100848.00;10475672;28;20032;-66
2021/05/24 14:17:53;;;;;;;0.10;0.10;;;;;;;19.63;42.14;100847.19;10494234;28;20056;-66
2021/05/24 14:22:53;;;;;;;0.10;0.10;;;;;;;19.80;44.30;100853.75;10493290;28;20416;-66
2021/05/24 14:27:53;;;;;;;0.10;0.10;;;;;;;19.93;42.87;100847.41;10493422;28;20032;-66
2021/05/24 14:32:58;;;;;;;0.00;0.00;;;;;;;19.74;42.92;100854.63;10492547;28;20029;-65
2021/05/24 14:37:58;;;;;;;0.10;0.10;;;;;;;19.42;38.76;100851.06;10486916;28;20021;-66
2021/05/24 14:42:59;;;;;;;0.10;0.10;;;;;;;19.33;42.65;100841.56;10493265;28;20520;-66
2021/05/24 14:48:00;;;;;;;0.10;0.10;;;;;;;19.20;45.23;100840.59;10492948;28;20020;-65
2021/05/24 14:53:03;;;;;;;0.10;0.10;;;;;;;19.08;44.41;100841.47;10492227;28;20414;-65
2021/05/24 14:58:03;;;;;;;0.10;0.10;;;;;;;19.00;44.49;100831.75;10492377;28;20016;-65
2021/05/24 15:03:04;;;;;;;0.10;0.10;;;;;;;18.98;45.95;100840.06;10490934;28;20024;-65
2021/05/24 15:08:05;;;;;;;0.10;0.10;;;;;;;18.90;45.79;100843.00;10460687;28;21484;-65
2021/05/24 15:13:05;;;;;;;0.10;0.10;;;;;;;18.67;46.75;100827.25;10473530;28;20024;-65
2021/05/24 15:18:05;;;;;;;0.10;0.10;;;;;;;18.42;47.68;100835.25;10491525;28;20017;-65
2021/05/24 15:23:06;;;;;;;0.10;0.10;;;;;;;18.21;48.41;100848.94;10479539;28;20012;-65
2021/05/24 15:28:08;;;;;;;0.10;0.10;;;;;;;18.02;47.63;100837.16;10502588;28;20070;-65
2021/05/24 15:33:09;;;;;;;0.10;0.10;;;;;;;17.88;48.20;100828.22;10513933;28;20024;-65
2021/05/24 15:38:12;;;;;;;0.10;0.10;;;;;;;17.71;49.05;100835.03;10532824;28;20027;-65
2021/05/24 15:43:14;;;;;;;0.10;0.10;;;;;;;17.54;47.58;100832.75;10511321;28;20012;-65
2021/05/24 15:48:15;;;;;;;0.10;0.10;;;;;;;17.39;49.20;100832.91;10531890;28;20028;-65
2021/05/24 15:53:15;;;;;;;0.00;0.00;;;;;;;17.26;50.00;100826.66;10513182;28;20072;-65
2021/05/24 15:58:15;;;;;;;0.10;0.10;;;;;;;17.12;50.67;100818.53;10475762;28;20035;-65
2021/05/24 16:03:16;;;;;;;0.10;0.10;;;;;;;17.00;52.60;100827.41;10481974;28;20266;-65
2021/05/24 16:08:16;;;;;;;0.10;0.10;;;;;;;16.85;54.39;100860.66;10489715;28;20040;-65
2021/05/24 16:13:18;;;;;;;0.10;0.10;;;;;;;16.12;63.41;100878.97;10488538;28;20036;-65
2021/05/24 16:18:18;;;;;;;0.10;0.10;;;;;;;15.27;66.95;100898.53;10484702;28;20161;-65
2021/05/24 16:23:22;;;;;;;0.10;0.10;;;;;;;14.83;69.01;100908.28;10470704;28;20503;-65
2021/05/24 16:28:25;;;;;;;0.10;0.10;;;;;;;14.61;69.76;100919.94;10481126;28;20029;-64
2021/05/24 16:33:25;;;;;;;0.10;0.10;;;;;;;14.41;70.72;100924.94;10488149;28;20021;-65
2021/05/24 16:38:26;;;;;;;0.10;0.10;;;;;;;14.33;71.36;100923.16;10489140;28;20024;-67
2021/05/24 16:43:26;;;;;;;0.13;0.13;;;;;;;14.31;71.76;100922.53;10484504;28;20085;-64
2021/05/24 16:48:27;;;;;;;0.10;0.10;;;;;;;14.32;72.03;100936.75;10487048;28;20024;-65
2021/05/24 16:53:28;;;;;;;0.10;0.10;;;;;;;14.14;72.07;100945.13;10476369;28;20035;-65
2021/05/24 16:58:28;;;;;;;0.10;0.10;;;;;;;13.99;72.96;100970.00;10468983;28;20020;-65
2021/05/24 17:03:29;;;;;;;0.10;0.10;;;;;;;13.86;73.12;100975.09;10486675;28;20481;-64
2021/05/24 17:08:31;;;;;;;0.10;0.10;;;;;;;13.82;74.17;100979.97;10457497;28;20595;-65
2021/05/24 17:13:31;;;;;;;0.10;0.10;;;;;;;13.80;74.54;100989.19;10475941;28;20036;-65
2021/05/24 17:18:32;;;;;;;0.20;0.20;;;;;;;13.79;74.40;100995.56;10486652;28;20516;-64
2021/05/24 17:23:33;;;;;;;0.10;0.10;;;;;;;13.76;75.33;101003.94;10500342;22;20569;-67
2021/05/24 17:28:34;;;;;;;0.10;0.10;;;;;;;13.72;75.45;101002.63;10477845;28;20468;-67
2021/05/24 17:33:34;;;;;;;0.15;0.15;;;;;;;13.63;75.42;101003.66;10479051;28;20020;-66
2021/05/24 17:38:35;;;;;;;0.10;0.10;;;;;;;13.56;76.09;101001.69;10474518;28;20017;-67
2021/05/24 17:43:37;;;;;;;0.10;0.10;;;;;;;13.57;76.71;101005.19;10479881;28;20464;-67
2021/05/24 17:48:37;;;;;;;0.10;0.10;;;;;;;13.52;76.32;101007.56;10475813;28;20020;-67
2021/05/24 17:53:37;;;;;;;0.10;0.10;;;;;;;13.46;76.48;101008.25;10476437;28;20392;-67
2021/05/24 17:58:41;;;;;;;0.10;0.10;;;;;;;13.42;76.28;100973.00;10480838;28;20259;-67
2021/05/24 18:03:44;;;;;;;0.10;0.10;;;;;;;13.36;76.74;100979.03;10458200;28;20115;-67
2021/05/24 18:08:47;;;;;;;0.17;0.17;;;;;;;13.30;77.84;101003.81;10462060;28;20403;-67
2021/05/24 18:13:52;;;;;;;0.10;0.10;;;;;;;13.28;77.57;101000.47;10465292;28;20039;-66
2021/05/24 18:18:54;;;;;;;0.10;0.10;;;;;;;13.26;77.30;101010.50;10443158;28;20090;-67
2021/05/24 18:23:55;;;;;;;0.10;0.10;;;;;;;13.21;77.38;100984.25;10469556;28;20045;-67
2021/05/24 18:28:58;;;;;;;0.10;0.10;;;;;;;13.18;77.66;100983.72;10473541;28;20301;-67
2021/05/24 18:33:58;;;;;;;0.10;0.10;;;;;;;13.17;77.70;100982.91;10472468;28;20249;-67
2021/05/24 18:38:59;;;;;;;0.10;0.10;;;;;;;13.12;77.42;100975.41;10476489;28;20445;-67
2021/05/24 18:44:00;;;;;;;0.10;0.10;;;;;;;13.10;76.79;100974.75;10479645;28;20035;-66
2021/05/24 18:49:00;;;;;;;0.10;0.10;;;;;;;13.09;76.79;100970.41;10474613;28;20021;-66
2021/05/24 18:54:01;;;;;;;0.10;0.10;;;;;;;13.00;78.02;100952.72;10460896;28;20384;-67
2021/05/24 18:59:04;;;;;;;0.10;0.10;;;;;;;12.87;78.98;100976.47;10454410;28;20021;-67
2021/05/24 19:06:01;;;;;;;0.10;0.10;;;;;;;12.65;81.98;100970.84;10469636;28;20463;-67
2021/05/24 19:09:29;;;;;;;0.10;0.10;;;;;;;12.31;82.89;100984.38;10464378;28;20111;-67
2021/05/24 19:14:30;;;;;;;0.10;0.10;;;;;;;12.17;82.91;100990.38;10474477;28;20021;-66
2021/05/24 19:19:30;;;;;;;0.10;0.10;;;;;;;12.10;83.66;100997.38;10469039;28;20025;-66
2021/05/24 19:24:30;;;;;;;0.10;0.10;;;;;;;12.01;84.53;101001.84;10474038;28;20024;-65
2021/05/24 19:29:31;;;;;;;0.10;0.10;;;;;;;11.94;84.68;100995.53;10462881;28;20273;-66
2021/05/24 19:34:33;;;;;;;0.10;0.10;;;;;;;11.93;83.95;101002.69;10467677;28;20028;-67
2021/05/24 19:39:33;;;;;;;0.10;0.10;;;;;;;11.93;85.02;101017.88;10468604;28;20029;-67
2021/05/24 19:44:34;;;;;;;0.10;0.10;;;;;;;11.89;85.25;101008.50;10475928;28;20429;-67
2021/05/24 20:02:37;;;;;;;0.10;0.10;;;;;;;11.88;86.88;101022.88;10470862;28;20055;-66
2021/05/24 20:26:21;;;;;;;0.10;0.10;;;;;;;11.53;87.11;101016.72;10468559;28;20017;-66
2021/05/24 20:31:21;;;;;;;0.10;0.10;;;;;;;11.47;87.18;101012.03;10442295;28;20112;-66
2021/05/24 20:36:22;;;;;;;0.10;0.10;;;;;;;11.53;88.08;101024.72;10449799;28;21515;-66
2021/05/24 20:41:23;;;;;;;0.10;0.10;;;;;;;11.59;87.11;101023.25;10449026;28;20111;-67
2021/05/24 20:46:23;;;;;;;0.10;0.10;;;;;;;11.61;87.55;101030.09;10473519;28;20031;-66
2021/05/24 20:51:24;;;;;;;0.10;0.10;;;;;;;11.61;87.79;101024.75;10473786;28;20029;-67
2021/05/24 20:56:26;;;;;;;0.10;0.10;;;;;;;11.59;87.50;101015.25;10466312;28;20102;-66
2021/05/24 21:01:32;;;;;;;0.10;0.10;;;;;;;11.54;88.10;101002.38;10479443;28;20051;-67
2021/05/24 21:06:33;;;;;;;0.10;0.10;;;;;;;11.41;88.65;100994.00;10475421;28;20031;-67
2021/05/24 21:11:33;;;;;;;0.10;0.10;;;;;;;11.29;88.33;100993.44;10477313;28;20025;-65
2021/05/24 21:16:34;;;;;;;0.10;0.10;;;;;;;11.20;89.33;101003.25;10476982;28;20021;-66
2021/05/24 21:21:35;;;;;;;0.10;0.10;;;;;;;11.16;89.81;101001.88;10481650;28;20021;-67
2021/05/24 21:26:35;;;;;;;0.10;0.10;;;;;;;11.13;90.57;101004.03;10475306;28;20021;-66
2021/05/24 21:31:44;;;;;;;0.10;0.10;;;;;;;11.06;91.29;101002.00;10478763;28;20063;-67
2021/05/24 21:36:47;;;;;;;0.10;0.10;;;;;;;11.01;91.27;100990.97;10482321;28;20280;-67
2021/05/24 21:41:50;;;;;;;0.10;0.10;;;;;;;10.93;91.63;100982.09;10482851;28;20016;-67
2021/05/24 21:46:50;;;;;;;0.10;0.10;;;;;;;10.87;91.97;100978.22;10472646;28;20025;-67
2021/05/24 21:51:51;;;;;;;0.13;0.13;;;;;;;10.86;92.87;100976.56;10477789;28;20429;-67
2021/05/24 21:56:51;;;;;;;0.10;0.10;;;;;;;10.85;92.51;100978.38;10473311;28;20034;-67
2021/05/24 22:01:55;;;;;;;0.10;0.10;;;;;;;10.85;92.67;100964.22;10474694;28;20021;-67
2021/05/24 22:06:55;;;;;;;0.10;0.10;;;;;;;10.85;92.51;100985.56;10465715;28;20056;-66
2021/05/24 22:11:55;;;;;;;0.10;0.10;;;;;;;10.85;92.38;100978.38;10484038;28;20518;-65
2021/05/24 22:16:56;;;;;;;0.10;0.10;;;;;;;10.86;92.28;100974.72;10468620;28;20029;-66
2021/05/24 22:21:56;;;;;;;0.10;0.10;;;;;;;10.87;92.55;100971.06;10470812;28;20087;-65
2021/05/24 22:26:57;;;;;;;0.10;0.10;;;;;;;10.90;92.46;100971.75;10468017;28;20021;-66
2021/05/24 22:31:57;;;;;;;0.10;0.10;;;;;;;10.92;92.06;100959.09;10481024;28;20035;-65
2021/05/24 22:36:57;;;;;;;0.10;0.10;;;;;;;10.94;92.80;100957.09;10472052;28;20441;-65
2021/05/24 22:41:58;;;;;;;0.10;0.10;;;;;;;10.91;92.43;100947.59;10474569;28;20074;-66
2021/05/24 22:46:58;;;;;;;0.10;0.10;;;;;;;10.92;91.75;100959.09;10476666;28;20028;-65
2021/05/24 22:51:59;;;;;;;0.20;0.20;;;;;;;10.88;91.38;100948.75;10465737;28;20052;-65
2021/05/24 22:57:02;;;;;;;0.10;0.10;;;;;;;10.86;91.25;100945.41;10461412;28;20394;-66
2021/05/24 23:02:02;;;;;;;0.10;0.10;;;;;;;10.83;90.65;100943.06;10471852;28;20278;-66
2021/05/24 23:07:03;;;;;;;0.10;0.10;;;;;;;10.82;90.86;100938.72;10473938;28;20048;-66
2021/05/24 23:12:03;;;;;;;0.10;0.10;;;;;;;10.80;90.53;100939.88;10473366;28;20021;-66
2021/05/24 23:17:06;;;;;;;0.10;0.10;;;;;;;10.78;91.21;100928.53;10474412;28;20490;-66
2021/05/24 23:22:07;;;;;;;0.10;0.10;;;;;;;10.75;90.66;100926.19;10509341;22;20039;-67
2021/05/24 23:27:07;;;;;;;0.10;0.10;;;;;;;10.73;91.10;100918.34;10552208;27;20042;-67
2021/05/24 23:32:09;;;;;;;0.10;0.10;;;;;;;10.72;90.71;100916.69;10530527;28;20099;-67
2021/05/24 23:37:10;;;;;;;0.10;0.10;;;;;;;10.70;90.33;100913.31;10511332;28;20119;-67
2021/05/24 23:42:10;;;;;;;0.10;0.10;;;;;;;10.68;90.32;100910.00;10521055;28;20593;-67
2021/05/24 23:47:10;;;;;;;0.10;0.10;;;;;;;10.65;90.72;100910.31;10529293;28;20281;-67
2021/05/24 23:52:11;;;;;;;0.10;0.10;;;;;;;10.63;90.09;100901.66;10508778;28;20016;-67
2021/05/24 23:57:11;;;;;;;0.10;0.10;;;;;;;10.60;90.38;100896.63;10515870;28;20061;-67
